Time;durP1;ratioP1;P1;durP2;ratioP2;P2;SDS_P1;SDS_P2;PMS_P1;PMS_P2;Temp;Humidity;BMP_temperature;BMP_pressure;BME280_temperature;BME280_humidity;BME280_pressure;Samples;Min_cycle;Max_cycle;Signal;HPM_P1;HPM_P2
2021/08/09 02:46:11;;;;;;;5.20;1.40;;;18.20;99.90;;;;;;5361255;24;20081;-86
2021/08/09 02:48:47;;;;;;;5.40;1.50;;;18.20;99.90;;;;;;4720185;30;20048;-86
2021/08/09 03:02:40;;;;;;;1.63;1.10;;;18.50;99.90;;;;;;4763822;30;20060;-86
2021/08/09 03:05:08;;;;;;;3.72;1.30;;;18.40;99.90;;;;;;4749819;30;20031;-86
2021/08/09 03:07:38;;;;;;;2.92;1.50;;;18.40;99.90;;;;;;4768328;30;20027;-86
2021/08/09 03:10:09;;;;;;;2.25;1.65;;;18.40;99.90;;;;;;4724775;30;20040;-86
2021/08/09 03:12:35;;;;;;;2.13;1.48;;;18.40;99.90;;;;;;4738467;30;20031;-86
2021/08/09 03:15:02;;;;;;;3.85;2.10;;;18.40;99.90;;;;;;4762181;30;20069;-86
2021/08/09 03:17:28;;;;;;;3.17;1.50;;;18.30;99.90;;;;;;4756160;30;20027;-86
2021/08/09 03:19:54;;;;;;;3.45;1.70;;;18.30;99.90;;;;;;4767830;30;20023;-86
2021/08/09 03:22:21;;;;;;;4.95;1.90;;;18.30;99.90;;;;;;4760268;30;20107;-86
2021/08/09 03:24:47;;;;;;;3.15;1.52;;;18.30;99.90;;;;;;4735974;30;20082;-86
2021/08/09 03:27:13;;;;;;;3.27;1.77;;;18.30;99.90;;;;;;4750767;30;20032;-86
2021/08/09 03:29:45;;;;;;;3.30;1.50;;;18.30;99.90;;;;;;4741066;30;20024;-86
2021/08/09 03:32:13;;;;;;;3.58;1.92;;;18.20;99.90;;;;;;4674103;30;20048;-86
2021/08/09 03:34:39;;;;;;;3.08;1.70;;;18.20;99.90;;;;;;4735436;30;20029;-86
2021/08/09 03:37:21;;;;;;;3.67;1.87;;;18.10;99.90;;;;;;4749398;30;20399;-86
2021/08/09 03:51:09;;;;;;;3.90;2.17;;;17.90;99.90;;;;;;4781119;30;20067;-86
2021/08/09 03:59:18;;;;;;;4.60;2.40;;;17.80;99.90;;;;;;4780578;30;20348;-86
2021/08/09 04:01:47;;;;;;;3.17;2.38;;;17.80;99.90;;;;;;4765639;30;20032;-86
2021/08/09 04:04:13;;;;;;;3.28;2.20;;;17.90;99.90;;;;;;4752449;30;20035;-86
2021/08/09 04:06:39;;;;;;;3.78;2.50;;;17.90;99.90;;;;;;4767255;30;20056;-86
2021/08/09 04:09:07;;;;;;;3.95;2.38;;;17.90;99.90;;;;;;4766438;30;20317;-86
2021/08/09 04:11:34;;;;;;;5.60;3.10;;;17.90;99.90;;;;;;4751962;30;20020;-86
2021/08/09 04:14:01;;;;;;;2.20;1.83;;;18.00;99.90;;;;;;4752073;30;20032;-86
2021/08/09 04:16:28;;;;;;;7.35;3.22;;;18.00;99.90;;;;;;4748614;30;20032;-86
2021/08/09 04:18:54;;;;;;;6.40;2.75;;;18.10;99.90;;;;;;4733968;30;20039;-86
2021/08/09 04:21:20;;;;;;;5.00;2.22;;;18.00;99.90;;;;;;4739485;30;20027;-86
2021/08/09 04:23:48;;;;;;;5.83;2.37;;;18.00;99.90;;;;;;4765866;30;20062;-86
2021/08/09 04:26:15;;;;;;;3.45;1.92;;;18.00;99.90;;;;;;4750414;30;20289;-87
2021/08/09 04:28:41;;;;;;;;;;;18.10;99.90;;;;;;4765513;30;20038;-86
2021/08/09 04:31:08;;;;;;;3.05;2.00;;;18.10;99.90;;;;;;4765256;30;20158;-86
2021/08/09 04:33:44;;;;;;;4.00;2.07;;;18.20;99.90;;;;;;4765694;30;20039;-86
2021/08/09 04:36:11;;;;;;;7.32;2.10;;;18.30;99.90;;;;;;4750895;30;20281;-86
2021/08/09 04:38:37;;;;;;;6.28;2.22;;;18.40;99.90;;;;;;4750726;30;20031;-86
2021/08/09 04:41:10;;;;;;;3.03;2.28;;;18.50;99.90;;;;;;4765511;30;20383;-86
2021/08/09 04:43:40;;;;;;;2.78;1.90;;;18.60;99.90;;;;;;4765828;30;20065;-86
2021/08/09 04:46:07;;;;;;;6.07;2.00;;;18.70;99.90;;;;;;4747870;30;20095;-86
2021/08/09 04:48:35;;;;;;;3.88;2.03;;;18.70;99.90;;;;;;4759738;30;20027;-86
2021/08/09 04:51:01;;;;;;;3.97;1.80;;;18.70;99.90;;;;;;4750298;30;20484;-86
2021/08/09 04:53:28;;;;;;;4.50;1.90;;;18.70;99.90;;;;;;4756750;30;20513;-86
2021/08/09 04:55:54;;;;;;;7.20;1.73;;;18.70;99.90;;;;;;4763303;30;20302;-86
2021/08/09 04:58:20;;;;;;;4.65;1.90;;;18.80;99.90;;;;;;4749198;30;20247;-86
2021/08/09 05:00:49;;;;;;;3.88;2.47;;;18.90;99.90;;;;;;4752824;30;20036;-86
2021/08/09 05:03:15;;;;;;;4.35;2.35;;;19.00;99.90;;;;;;4753752;30;20043;-86
2021/08/09 05:05:45;;;;;;;3.63;1.83;;;19.10;99.90;;;;;;4754431;30;20036;-86
2021/08/09 05:08:12;;;;;;;3.20;1.65;;;19.10;99.90;;;;;;4750884;30;20044;-87
2021/08/09 05:10:37;;;;;;;2.80;1.73;;;19.20;99.90;;;;;;4753187;30;20030;-88
2021/08/09 05:13:04;;;;;;;5.03;1.63;;;19.20;99.90;;;;;;4736566;30;20071;-88
2021/08/09 05:15:33;;;;;;;5.97;1.55;;;19.30;99.90;;;;;;4749893;30;20028;-87
2021/08/09 05:20:38;;;;;;;13.65;1.60;;;19.50;99.60;;;;;;4743225;30;20045;-87
2021/08/09 05:23:03;;;;;;;6.18;2.08;;;19.60;99.30;;;;;;4728778;30;20037;-82
2021/08/09 05:25:31;;;;;;;4.03;1.70;;;19.50;99.00;;;;;;4705856;30;20430;-82
2021/08/09 05:27:57;;;;;;;2.38;1.70;;;19.50;99.20;;;;;;4720299;30;20069;-82
2021/08/09 05:30:23;;;;;;;5.25;1.63;;;19.50;99.10;;;;;;4721225;30;20056;-81
2021/08/09 05:32:49;;;;;;;2.35;1.55;;;19.50;99.20;;;;;;4722482;30;20040;-82
2021/08/09 05:35:15;;;;;;;5.82;1.92;;;19.50;99.40;;;;;;4721608;30;20025;-82
2021/08/09 05:37:40;;;;;;;2.75;1.73;;;19.60;99.50;;;;;;4721541;30;20045;-81
2021/08/09 05:40:09;;;;;;;8.65;1.88;;;19.60;99.30;;;;;;4721476;30;20036;-82
2021/08/09 05:42:37;;;;;;;3.67;1.85;;;19.80;99.40;;;;;;4729147;30;20045;-81
2021/08/09 05:45:04;;;;;;;5.80;2.05;;;19.90;98.60;;;;;;4721014;30;20446;-81
2021/08/09 05:47:30;;;;;;;7.70;1.85;;;19.90;99.00;;;;;;4719388;30;20052;-81
2021/08/09 05:49:56;;;;;;;6.95;2.22;;;20.00;98.70;;;;;;4703557;30;20021;-81
2021/08/09 05:52:25;;;;;;;3.88;1.52;;;20.00;98.80;;;;;;4718493;30;20056;-81
2021/08/09 05:55:04;;;;;;;2.90;1.70;;;20.00;98.50;;;;;;4733071;30;21064;-81
2021/08/09 05:57:32;;;;;;;8.00;2.53;;;20.20;98.30;;;;;;4745100;30;20032;-82
2021/08/09 05:59:58;;;;;;;5.07;1.73;;;20.30;98.40;;;;;;4752953;30;20362;-82
2021/08/09 06:02:23;;;;;;;8.27;2.00;;;20.50;98.10;;;;;;4738783;30;20342;-82
2021/08/09 06:04:49;;;;;;;2.35;1.60;;;20.60;97.60;;;;;;4724343;30;20077;-82
2021/08/09 06:07:17;;;;;;;4.30;1.60;;;20.60;97.30;;;;;;4738509;30;20036;-82
2021/08/09 06:09:51;;;;;;;7.55;1.65;;;20.70;97.30;;;;;;4722934;30;20020;-82
2021/08/09 06:12:17;;;;;;;3.58;1.70;;;20.80;96.70;;;;;;4752382;30;20063;-82
2021/08/09 06:14:43;;;;;;;5.88;1.90;;;20.80;95.90;;;;;;4735889;30;20021;-82
2021/08/09 06:17:09;;;;;;;6.90;1.90;;;20.90;95.90;;;;;;4743787;30;20367;-82
2021/08/09 06:19:35;;;;;;;3.85;1.85;;;20.90;96.00;;;;;;4753444;30;20060;-83
2021/08/09 06:22:03;;;;;;;10.20;1.85;;;20.90;95.80;;;;;;4736739;30;20063;-82
2021/08/09 06:24:30;;;;;;;4.93;1.58;;;21.00;95.20;;;;;;4751262;30;20040;-82
2021/08/09 06:26:56;;;;;;;5.35;1.83;;;21.20;95.10;;;;;;4731316;30;20044;-82
2021/08/09 06:29:22;;;;;;;6.07;1.60;;;21.40;94.40;;;;;;4734782;30;20111;-82
2021/08/09 06:31:48;;;;;;;6.78;1.83;;;21.70;94.30;;;;;;4729502;30;20037;-82
2021/08/09 06:34:17;;;;;;;5.03;1.70;;;21.90;93.90;;;;;;4734290;30;20028;-82
2021/08/09 06:36:43;;;;;;;5.05;1.58;;;22.10;92.90;;;;;;4722453;30;20033;-82
2021/08/09 06:39:11;;;;;;;2.75;1.60;;;22.30;92.80;;;;;;4737139;30;20020;-82
2021/08/09 06:41:37;;;;;;;9.95;2.22;;;22.40;92.90;;;;;;4722185;30;20270;-82
2021/08/09 06:44:18;;;;;;;3.55;1.63;;;22.60;92.40;;;;;;4750594;30;20435;-82
2021/08/09 06:46:44;;;;;;;3.57;2.07;;;22.60;91.80;;;;;;4736298;30;20040;-82
2021/08/09 06:49:10;;;;;;;4.75;1.60;;;22.20;91.60;;;;;;4731722;30;20273;-83
2021/08/09 06:51:36;;;;;;;4.25;1.83;;;22.00;92.40;;;;;;4733154;30;20043;-82
2021/08/09 06:54:02;;;;;;;6.30;1.75;;;21.80;93.00;;;;;;4743136;30;20071;-83
2021/08/09 06:56:29;;;;;;;3.97;1.52;;;21.70;92.80;;;;;;4731247;30;20049;-83
2021/08/09 06:58:55;;;;;;;5.55;2.08;;;21.70;93.10;;;;;;4735044;30;20063;-83
2021/08/09 07:01:22;;;;;;;4.82;1.75;;;21.80;93.20;;;;;;4732547;30;20033;-83
2021/08/09 07:03:49;;;;;;;3.03;1.52;;;21.90;93.00;;;;;;4749216;30;20036;-83
2021/08/09 07:06:21;;;;;;;2.20;1.67;;;22.10;92.90;;;;;;4750060;30;20039;-83
2021/08/09 07:08:51;;;;;;;8.52;1.60;;;22.60;91.70;;;;;;4750092;30;20036;-82
2021/08/09 07:11:17;;;;;;;3.72;1.73;;;22.90;91.00;;;;;;4749863;30;20043;-83
2021/08/09 07:13:45;;;;;;;5.22;1.75;;;23.20;90.40;;;;;;4750102;30;20082;-83
2021/08/09 07:16:11;;;;;;;;;;;23.40;87.70;;;;;;4749966;30;20017;-83
2021/08/09 07:18:37;;;;;;;3.33;1.33;;;23.70;87.70;;;;;;4749947;30;19933;-83
2021/08/09 07:21:03;;;;;;;6.77;1.50;;;23.90;86.90;;;;;;4748591;30;20039;-83
2021/08/09 07:23:30;;;;;;;4.30;1.27;;;24.20;85.60;;;;;;4721878;30;20366;-83
2021/08/09 07:25:56;;;;;;;2.15;1.33;;;24.20;81.50;;;;;;4728516;30;20246;-83
2021/08/09 07:28:22;;;;;;;4.82;1.30;;;24.20;83.50;;;;;;4749908;30;20024;-83
2021/08/09 07:30:48;;;;;;;2.60;1.20;;;24.30;83.60;;;;;;4736640;30;20024;-83
2021/08/09 07:33:14;;;;;;;4.05;1.13;;;24.50;82.40;;;;;;4721709;30;20112;-83
2021/08/09 07:35:39;;;;;;;3.88;1.13;;;24.50;80.80;;;;;;4736636;30;20092;-83
2021/08/09 07:38:06;;;;;;;2.15;1.52;;;24.60;81.30;;;;;;4735681;30;20032;-84
2021/08/09 07:40:32;;;;;;;1.40;0.95;;;24.40;80.20;;;;;;4736285;30;20100;-84
2021/08/09 07:43:03;;;;;;;7.85;1.73;;;24.20;78.80;;;;;;4735364;30;20251;-84
2021/08/09 07:45:29;;;;;;;3.97;1.20;;;24.20;79.50;;;;;;4750373;30;20055;-84
2021/08/09 07:47:57;;;;;;;;;;;24.30;81.20;;;;;;4736542;30;20040;-84
2021/08/09 07:50:25;;;;;;;4.03;1.40;;;24.40;80.60;;;;;;4734953;30;19917;-83
2021/08/09 07:52:51;;;;;;;9.35;1.48;;;24.30;79.90;;;;;;4737103;30;20100;-81
2021/08/09 07:55:17;;;;;;;7.25;1.35;;;24.30;81.10;;;;;;4736653;30;20028;-81
2021/08/09 07:57:43;;;;;;;9.57;1.92;;;24.40;79.50;;;;;;4724472;30;20224;-81
2021/08/09 08:00:10;;;;;;;2.47;1.17;;;24.40;79.40;;;;;;4723555;30;20040;-81
2021/08/09 08:02:42;;;;;;;7.90;1.73;;;24.60;80.80;;;;;;4737521;30;20024;-83
2021/08/09 08:05:10;;;;;;;8.07;1.60;;;25.00;80.50;;;;;;4723396;30;20036;-84
2021/08/09 08:07:36;;;;;;;5.35;1.60;;;25.30;76.70;;;;;;4738075;30;20028;-83
2021/08/09 08:10:03;;;;;;;10.50;1.45;;;25.20;75.30;;;;;;4718641;30;20040;-83
2021/08/09 08:12:30;;;;;;;5.63;1.63;;;25.20;74.40;;;;;;4736167;30;20031;-83
2021/08/09 08:14:57;;;;;;;5.43;1.50;;;25.30;72.20;;;;;;4718041;30;20028;-83
2021/08/09 08:17:23;;;;;;;2.65;1.35;;;25.30;73.40;;;;;;4733155;30;20020;-83
2021/08/09 08:19:51;;;;;;;5.90;1.40;;;25.30;72.40;;;;;;4734619;30;20064;-83
2021/08/09 08:22:17;;;;;;;5.47;1.50;;;25.30;72.50;;;;;;4735474;30;20036;-83
2021/08/09 08:24:43;;;;;;;3.80;1.70;;;25.20;70.00;;;;;;4735929;30;20095;-83
2021/08/09 08:27:10;;;;;;;4.32;1.33;;;25.30;74.80;;;;;;4735191;30;20361;-83
2021/08/09 08:29:37;;;;;;;3.40;1.33;;;25.60;72.50;;;;;;4735209;30;20060;-83
2021/08/09 08:32:04;;;;;;;6.55;1.40;;;25.60;73.20;;;;;;4734916;30;20028;-83
2021/08/09 08:34:30;;;;;;;7.63;1.23;;;25.50;69.80;;;;;;4720736;30;20032;-83
2021/08/09 08:36:57;;;;;;;;;;;25.20;72.70;;;;;;4735390;30;20028;-84
2021/08/09 08:39:24;;;;;;;2.22;1.20;;;25.20;74.10;;;;;;4719941;30;19952;-83
2021/08/09 08:41:52;;;;;;;6.03;1.25;;;25.20;72.10;;;;;;4748989;30;20050;-83
2021/08/09 08:44:20;;;;;;;3.25;1.30;;;25.50;73.10;;;;;;4716585;30;20071;-83
2021/08/09 08:46:47;;;;;;;3.55;1.60;;;25.80;71.80;;;;;;4723497;30;20078;-83
2021/08/09 08:49:15;;;;;;;8.18;1.40;;;26.00;72.40;;;;;;4734329;30;20025;-83
2021/08/09 08:51:42;;;;;;;4.75;1.42;;;25.80;72.40;;;;;;4738587;30;20029;-83
2021/08/09 08:54:08;;;;;;;4.53;1.10;;;25.70;73.70;;;;;;4719988;30;20095;-83
2021/08/09 08:56:38;;;;;;;4.57;1.42;;;25.80;75.50;;;;;;4733614;30;20028;-83
2021/08/09 08:59:11;;;;;;;3.65;1.63;;;25.90;72.50;;;;;;4720389;30;20043;-83
2021/08/09 09:01:39;;;;;;;5.47;1.67;;;25.90;72.20;;;;;;4737518;30;20047;-83
2021/08/09 09:04:21;;;;;;;6.55;1.60;;;25.90;75.20;;;;;;4736402;30;20091;-83
2021/08/09 09:06:52;;;;;;;4.47;1.52;;;26.00;73.10;;;;;;4746414;30;20041;-82
2021/08/09 09:09:23;;;;;;;74.35;22.38;;;25.90;71.10;;;;;;4748862;30;20036;-85
2021/08/09 09:11:49;;;;;;;19.08;7.15;;;26.00;75.70;;;;;;4748610;30;20344;-84
2021/08/09 09:14:29;;;;;;;10.95;1.40;;;26.20;75.50;;;;;;4734264;30;20055;-82
2021/08/09 09:16:56;;;;;;;10.32;1.70;;;26.20;70.20;;;;;;4748662;30;20051;-80
2021/08/09 09:19:30;;;;;;;7.38;2.53;;;26.00;71.90;;;;;;4740417;30;20063;-81
2021/08/09 09:21:56;;;;;;;8.98;2.72;;;26.00;73.50;;;;;;4735892;30;20339;-80
2021/08/09 09:24:23;;;;;;;3.47;1.40;;;26.00;72.20;;;;;;4734518;30;20036;-81
2021/08/09 09:26:59;;;;;;;5.68;1.40;;;26.30;76.10;;;;;;4750522;30;20033;-82
2021/08/09 09:29:26;;;;;;;4.37;2.30;;;26.60;73.00;;;;;;4731967;30;20028;-84
2021/08/09 09:31:53;;;;;;;6.00;1.60;;;26.70;69.80;;;;;;4732619;30;20287;-83
2021/08/09 09:34:21;;;;;;;10.93;1.80;;;26.70;74.20;;;;;;4725665;30;20040;-82
2021/08/09 09:36:54;;;;;;;3.03;1.17;;;26.90;71.10;;;;;;4737570;30;20025;-82
2021/08/09 09:39:37;;;;;;;5.90;1.48;;;26.90;71.10;;;;;;4734995;30;20032;-82
2021/08/09 09:42:11;;;;;;;5.18;1.35;;;27.10;69.20;;;;;;4719345;30;20051;-82
2021/08/09 09:44:39;;;;;;;8.45;1.48;;;26.90;69.30;;;;;;4717931;30;20056;-82
2021/08/09 09:47:23;;;;;;;6.38;1.38;;;26.90;68.00;;;;;;4726034;30;20328;-82
2021/08/09 09:49:52;;;;;;;4.20;1.60;;;26.80;70.50;;;;;;4729687;30;20088;-82
2021/08/09 09:52:47;;;;;;;3.67;1.40;;;26.80;70.50;;;;;;4748757;30;20108;-82
2021/08/09 09:55:14;;;;;;;2.47;1.20;;;27.00;66.50;;;;;;4718269;30;20036;-82
2021/08/09 09:57:43;;;;;;;4.75;1.48;;;27.00;65.30;;;;;;4749942;30;20036;-83
2021/08/09 10:00:13;;;;;;;5.60;1.40;;;26.90;65.50;;;;;;4733630;30;20228;-83
2021/08/09 10:02:40;;;;;;;2.80;1.30;;;27.00;67.80;;;;;;4741693;30;20087;-83
2021/08/09 10:05:07;;;;;;;2.60;1.25;;;27.10;66.80;;;;;;4733650;30;20100;-83
2021/08/09 10:07:35;;;;;;;6.60;1.53;;;27.20;65.60;;;;;;4720466;30;20067;-82
2021/08/09 10:10:02;;;;;;;3.03;1.17;;;27.40;61.90;;;;;;4734526;30;20299;-80
2021/08/09 10:12:32;;;;;;;6.20;1.73;;;27.40;60.80;;;;;;4734760;30;20040;-80
2021/08/09 10:14:59;;;;;;;5.35;1.30;;;27.40;63.00;;;;;;4734807;30;20064;-80
2021/08/09 10:17:27;;;;;;;4.68;1.25;;;27.50;61.80;;;;;;4750830;30;20039;-80
2021/08/09 10:20:08;;;;;;;4.05;1.25;;;27.40;61.00;;;;;;4751013;30;20056;-80
2021/08/09 10:22:34;;;;;;;3.83;1.17;;;27.20;64.70;;;;;;4738122;30;20060;-80
2021/08/09 10:25:01;;;;;;;3.87;1.60;;;27.50;61.30;;;;;;4734779;30;20028;-80
2021/08/09 10:27:45;;;;;;;2.38;1.10;;;27.40;62.40;;;;;;4735307;30;20044;-80
2021/08/09 10:30:15;;;;;;;3.35;1.50;;;27.50;63.50;;;;;;4750099;30;20033;-80
2021/08/09 10:32:51;;;;;;;6.70;1.10;;;27.50;63.30;;;;;;4720407;30;20036;-80
2021/08/09 10:35:43;;;;;;;4.35;1.17;;;27.50;61.50;;;;;;4734709;30;20032;-80
2021/08/09 10:38:16;;;;;;;2.55;0.80;;;27.60;62.00;;;;;;4749617;30;20040;-80
2021/08/09 10:40:43;;;;;;;2.95;1.20;;;27.70;59.90;;;;;;4750431;30;20381;-81
2021/08/09 10:43:09;;;;;;;;;;;27.80;58.20;;;;;;4735639;30;20020;-80
2021/08/09 10:45:47;;;;;;;9.23;1.30;;;27.70;59.80;;;;;;4736835;30;19910;-81
2021/08/09 10:48:14;;;;;;;2.35;1.25;;;27.80;55.90;;;;;;4736843;30;20111;-81
2021/08/09 10:50:40;;;;;;;7.25;1.40;;;27.70;60.30;;;;;;4752091;30;20036;-81
2021/08/09 10:53:25;;;;;;;2.50;1.35;;;27.80;58.10;;;;;;4735365;30;20037;-81
2021/08/09 10:56:01;;;;;;;2.70;1.20;;;27.90;61.50;;;;;;4730249;30;20422;-81
2021/08/09 10:58:42;;;;;;;3.57;1.10;;;28.00;60.50;;;;;;4735588;30;20081;-81
2021/08/09 11:01:11;;;;;;;4.97;1.02;;;28.20;57.60;;;;;;4736108;30;20047;-81
2021/08/09 11:04:01;;;;;;;3.47;1.10;;;28.30;56.70;;;;;;4745587;30;20033;-81
2021/08/09 11:06:51;;;;;;;2.78;1.13;;;28.50;58.20;;;;;;4677592;30;20096;-81
2021/08/09 11:12:15;;;;;;;3.40;1.30;;;28.50;57.60;;;;;;4697189;30;20112;-80
2021/08/09 11:15:03;;;;;;;2.50;1.10;;;28.40;58.10;;;;;;4700538;30;20045;-80
2021/08/09 11:17:41;;;;;;;5.05;1.10;;;28.40;57.30;;;;;;4696536;30;20074;-80
2021/08/09 11:20:11;;;;;;;7.05;1.13;;;28.40;58.70;;;;;;4698623;30;20128;-80
2021/08/09 11:22:38;;;;;;;4.90;1.30;;;28.40;56.70;;;;;;4698592;30;20154;-80
2021/08/09 11:25:22;;;;;;;6.95;1.45;;;28.40;58.80;;;;;;4698882;30;20034;-80
2021/08/09 11:28:03;;;;;;;3.13;1.50;;;28.60;59.80;;;;;;4682243;30;20038;-79
2021/08/09 11:30:40;;;;;;;3.03;1.30;;;28.70;59.50;;;;;;4677870;30;20112;-79
2021/08/09 11:33:18;;;;;;;3.15;1.20;;;28.70;54.60;;;;;;4695651;30;20094;-79
2021/08/09 11:35:44;;;;;;;3.08;0.93;;;28.40;59.90;;;;;;4682698;30;20034;-79
2021/08/09 11:38:11;;;;;;;;;;;28.40;57.90;;;;;;4681214;30;20026;-78
2021/08/09 11:40:39;;;;;;;2.70;1.13;;;28.50;54.30;;;;;;4671558;30;19982;-78
2021/08/09 11:43:06;;;;;;;1.77;0.80;;;28.50;55.10;;;;;;4714536;30;20044;-78
2021/08/09 11:45:32;;;;;;;3.20;1.55;;;28.70;55.60;;;;;;4735969;30;20212;-79
2021/08/09 11:47:58;;;;;;;4.23;0.77;;;28.80;56.00;;;;;;4736314;30;20036;-79
2021/08/09 11:50:24;;;;;;;4.57;1.13;;;28.80;54.10;;;;;;4733470;30;20337;-79
2021/08/09 11:52:50;;;;;;;3.28;1.20;;;28.70;56.50;;;;;;4725492;30;20025;-79
2021/08/09 11:55:23;;;;;;;5.15;1.77;;;28.70;54.60;;;;;;4731168;30;20040;-78
2021/08/09 11:57:49;;;;;;;4.43;1.20;;;28.80;54.40;;;;;;4733987;30;20072;-78
2021/08/09 12:00:16;;;;;;;2.00;1.13;;;28.70;55.00;;;;;;4719540;30;20036;-79
2021/08/09 12:03:08;;;;;;;3.45;0.93;;;28.80;52.90;;;;;;4733548;30;20067;-79
2021/08/09 12:05:35;;;;;;;2.90;1.45;;;28.60;54.30;;;;;;4729924;30;20383;-79
2021/08/09 12:08:04;;;;;;;2.92;1.02;;;28.50;53.80;;;;;;4733286;30;20058;-78
2021/08/09 12:10:32;;;;;;;4.50;1.30;;;28.50;53.90;;;;;;4735132;30;20089;-78
2021/08/09 12:12:59;;;;;;;5.13;1.90;;;28.50;55.80;;;;;;4734776;30;20100;-78
2021/08/09 12:15:25;;;;;;;7.45;1.10;;;28.80;55.80;;;;;;4733582;30;20040;-78
2021/08/09 12:18:09;;;;;;;4.30;0.90;;;28.90;52.40;;;;;;4733354;30;20033;-78
2021/08/09 12:20:35;;;;;;;3.05;1.05;;;28.90;55.80;;;;;;4733405;30;20118;-78
2021/08/09 12:23:02;;;;;;;64.57;2.40;;;29.10;55.70;;;;;;4733699;30;20119;-78
2021/08/09 12:25:35;;;;;;;;;;;29.20;56.20;;;;;;4744542;30;20029;-78
2021/08/09 12:28:03;;;;;;;10.63;1.38;;;29.30;55.60;;;;;;4732586;30;19925;-78
2021/08/09 12:30:29;;;;;;;4.60;1.30;;;29.30;54.60;;;;;;4733188;30;20028;-78
2021/08/09 12:33:04;;;;;;;5.70;1.30;;;29.40;54.40;;;;;;4733056;30;20099;-78
2021/08/09 12:35:40;;;;;;;1.38;1.13;;;29.40;54.80;;;;;;4731045;30;20032;-79
2021/08/09 12:38:07;;;;;;;11.63;1.13;;;29.40;53.20;;;;;;4717838;30;20036;-78
2021/08/09 12:40:37;;;;;;;2.92;1.00;;;29.30;56.10;;;;;;4742224;30;20051;-78
2021/08/09 12:43:07;;;;;;;2.65;1.08;;;29.40;54.60;;;;;;4730960;30;20091;-79
2021/08/09 12:45:32;;;;;;;6.57;1.30;;;29.60;55.40;;;;;;4717928;30;20044;-79
2021/08/09 12:47:58;;;;;;;4.97;1.60;;;29.60;55.50;;;;;;4746281;30;20092;-78
2021/08/09 12:50:24;;;;;;;3.70;1.13;;;29.60;53.00;;;;;;4731559;30;20032;-79
2021/08/09 12:52:50;;;;;;;7.20;1.10;;;29.30;52.50;;;;;;4747006;30;20029;-79
2021/08/09 12:55:16;;;;;;;4.82;1.02;;;29.20;55.80;;;;;;4734189;30;20052;-79
2021/08/09 12:57:41;;;;;;;5.13;1.17;;;29.20;53.40;;;;;;4723867;30;20033;-79
2021/08/09 13:00:08;;;;;;;3.37;1.00;;;29.30;54.90;;;;;;4732766;30;20044;-79
2021/08/09 13:02:34;;;;;;;;;;;29.50;53.00;;;;;;4719215;30;20224;-79
2021/08/09 13:05:00;;;;;;;1.20;0.80;;;29.60;51.40;;;;;;4741943;30;19925;-79
2021/08/09 13:07:26;;;;;;;2.78;1.02;;;29.80;50.30;;;;;;4732398;30;20037;-79
2021/08/09 13:09:53;;;;;;;3.80;1.10;;;29.70;49.00;;;;;;4747137;30;20037;-79
2021/08/09 13:12:19;;;;;;;2.63;0.80;;;29.50;50.60;;;;;;4731176;30;20025;-79
2021/08/09 13:14:45;;;;;;;1.97;0.80;;;29.60;49.70;;;;;;4743631;30;20114;-79
2021/08/09 13:17:11;;;;;;;1.60;0.87;;;29.60;49.80;;;;;;4744371;30;20090;-79
2021/08/09 13:19:37;;;;;;;2.60;0.80;;;29.50;51.90;;;;;;4717422;30;20096;-79
2021/08/09 13:22:03;;;;;;;7.00;1.23;;;29.60;50.80;;;;;;4746735;30;20036;-79
2021/08/09 13:24:28;;;;;;;4.00;1.00;;;29.70;52.40;;;;;;4730206;30;20060;-79
2021/08/09 13:26:56;;;;;;;3.83;1.07;;;29.90;52.10;;;;;;4732180;30;20108;-79
2021/08/09 13:29:22;;;;;;;3.97;1.05;;;30.00;50.30;;;;;;4746881;30;20052;-79
2021/08/09 13:31:48;;;;;;;3.00;1.00;;;30.00;49.70;;;;;;4732780;30;20024;-79
2021/08/09 13:34:14;;;;;;;2.85;1.05;;;29.70;51.30;;;;;;4748118;30;20239;-79
2021/08/09 13:36:40;;;;;;;1.90;0.80;;;29.80;48.30;;;;;;4714762;30;20071;-79
2021/08/09 13:39:06;;;;;;;4.40;1.07;;;29.60;50.90;;;;;;4748417;30;20040;-79
2021/08/09 13:41:31;;;;;;;4.90;1.00;;;29.60;51.40;;;;;;4733930;30;20190;-79
2021/08/09 13:43:57;;;;;;;3.28;0.70;;;29.60;51.30;;;;;;4733562;30;20067;-79
2021/08/09 13:46:23;;;;;;;6.73;1.07;;;29.80;50.20;;;;;;4733613;30;20104;-79
2021/08/09 13:48:49;;;;;;;2.40;0.97;;;30.00;48.60;;;;;;4738152;30;20131;-78
2021/08/09 13:51:16;;;;;;;4.90;0.82;;;29.80;50.20;;;;;;4736084;30;20047;-79
2021/08/09 13:53:42;;;;;;;5.90;1.08;;;29.70;50.10;;;;;;4736645;30;20036;-79
2021/08/09 13:56:08;;;;;;;2.33;0.80;;;29.70;49.60;;;;;;4737115;30;20027;-78
2021/08/09 13:58:33;;;;;;;1.10;0.70;;;29.60;49.50;;;;;;4722067;30;20058;-78
2021/08/09 14:00:59;;;;;;;2.53;0.82;;;29.60;50.70;;;;;;4747517;30;20086;-78
2021/08/09 14:03:25;;;;;;;2.83;0.90;;;29.80;50.30;;;;;;4749952;30;20024;-78
2021/08/09 14:05:51;;;;;;;1.53;0.80;;;29.90;51.50;;;;;;4749917;30;20021;-78
2021/08/09 14:08:17;;;;;;;5.03;0.80;;;30.00;50.40;;;;;;4735818;30;20074;-79
2021/08/09 14:10:42;;;;;;;1.15;0.75;;;30.00;48.40;;;;;;4750901;30;20316;-79
2021/08/09 14:13:11;;;;;;;4.60;0.77;;;29.80;49.40;;;;;;4735267;30;20154;-79
2021/08/09 14:15:37;;;;;;;3.35;0.65;;;29.70;50.00;;;;;;4730075;30;20071;-79
2021/08/09 14:18:03;;;;;;;4.57;0.80;;;29.70;49.90;;;;;;4735295;30;20033;-79
2021/08/09 14:20:31;;;;;;;2.33;0.82;;;29.70;48.20;;;;;;4746813;30;20071;-78
2021/08/09 14:22:57;;;;;;;5.73;1.07;;;29.60;49.30;;;;;;4747363;30;20056;-79
2021/08/09 14:25:23;;;;;;;6.68;1.42;;;29.60;50.80;;;;;;4735904;30;20078;-79
2021/08/09 14:27:51;;;;;;;1.30;0.60;;;29.70;49.70;;;;;;4735511;30;20044;-79
2021/08/09 14:30:21;;;;;;;3.78;0.90;;;29.80;49.30;;;;;;4721762;30;20024;-79
2021/08/09 14:32:47;;;;;;;1.83;0.88;;;29.80;50.40;;;;;;4720766;30;20626;-79
2021/08/09 14:35:13;;;;;;;4.60;0.83;;;29.70;49.50;;;;;;4734450;30;20385;-78
2021/08/09 14:37:44;;;;;;;7.20;1.77;;;29.80;49.20;;;;;;4735428;30;20067;-79
2021/08/09 14:40:10;;;;;;;3.43;1.07;;;29.90;47.40;;;;;;4721230;30;20300;-79
2021/08/09 14:42:36;;;;;;;3.83;0.73;;;29.70;49.70;;;;;;4750456;30;20062;-79
2021/08/09 14:45:04;;;;;;;1.65;0.80;;;29.70;50.60;;;;;;4735226;30;20040;-79
2021/08/09 14:47:31;;;;;;;1.02;0.80;;;29.80;49.80;;;;;;4735400;30;20037;-78
2021/08/09 14:49:58;;;;;;;9.10;1.27;;;29.90;47.90;;;;;;4749027;30;20029;-79
2021/08/09 14:52:24;;;;;;;1.60;0.85;;;29.80;50.60;;;;;;4749050;30;20028;-80
2021/08/09 14:54:50;;;;;;;2.37;1.10;;;29.90;49.10;;;;;;4750697;30;20228;-79
2021/08/09 14:57:17;;;;;;;3.58;0.95;;;30.00;48.90;;;;;;4737286;30;20029;-80
2021/08/09 14:59:51;;;;;;;2.85;0.60;;;30.00;46.90;;;;;;4731913;30;20032;-81
2021/08/09 15:02:22;;;;;;;2.92;1.00;;;29.90;47.50;;;;;;4747145;30;20040;-80
2021/08/09 15:04:49;;;;;;;5.00;0.85;;;29.70;48.60;;;;;;4740526;30;20044;-80
2021/08/09 15:07:21;;;;;;;3.08;0.80;;;29.60;47.90;;;;;;4732252;30;20056;-80
2021/08/09 15:09:54;;;;;;;4.75;1.08;;;29.40;49.00;;;;;;4733669;30;20033;-80
2021/08/09 15:12:20;;;;;;;2.00;0.98;;;29.40;48.90;;;;;;4725382;30;20067;-80
2021/08/09 15:14:45;;;;;;;6.70;1.27;;;29.50;49.20;;;;;;4735170;30;20025;-79
2021/08/09 15:17:13;;;;;;;3.20;0.77;;;29.50;48.40;;;;;;4731621;30;20123;-80
2021/08/09 15:19:39;;;;;;;2.00;1.05;;;29.60;50.00;;;;;;4732766;30;20072;-80
2021/08/09 15:22:05;;;;;;;1.17;0.77;;;29.60;49.80;;;;;;4747563;30;20228;-80
2021/08/09 15:24:31;;;;;;;5.95;1.13;;;29.60;48.90;;;;;;4732719;30;20032;-79
2021/08/09 15:26:57;;;;;;;4.03;1.27;;;29.60;49.80;;;;;;4746841;30;20051;-80
2021/08/09 15:29:23;;;;;;;;;;;29.60;50.20;;;;;;4745523;30;20036;-80
2021/08/09 15:31:49;;;;;;;6.43;1.40;;;29.50;50.50;;;;;;4729520;30;19914;-80
2021/08/09 15:34:15;;;;;;;5.40;1.60;;;29.50;50.90;;;;;;4743171;30;20021;-80
2021/08/09 15:36:41;;;;;;;6.20;0.90;;;29.60;50.70;;;;;;4748876;30;20040;-80
2021/08/09 15:39:07;;;;;;;4.73;0.90;;;29.70;49.90;;;;;;4732412;30;20036;-80
2021/08/09 15:41:33;;;;;;;4.90;1.08;;;29.70;50.60;;;;;;4712588;30;20044;-80
2021/08/09 15:43:59;;;;;;;2.40;1.00;;;29.70;49.50;;;;;;4731978;30;20037;-80
2021/08/09 15:46:25;;;;;;;4.47;1.38;;;29.50;50.00;;;;;;4717397;30;20036;-80
2021/08/09 15:48:50;;;;;;;9.40;1.50;;;29.50;50.60;;;;;;4747659;30;20029;-80
2021/08/09 15:51:16;;;;;;;3.40;1.20;;;29.40;50.40;;;;;;4732697;30;20030;-80
2021/08/09 15:53:43;;;;;;;4.95;1.08;;;29.30;50.20;;;;;;4732440;30;20056;-80
2021/08/09 15:56:11;;;;;;;3.53;0.90;;;29.30;48.90;;;;;;4747439;30;20096;-80
2021/08/09 15:58:38;;;;;;;2.58;0.98;;;29.10;51.70;;;;;;4726561;30;20060;-80
2021/08/09 16:01:04;;;;;;;;;;;29.10;50.20;;;;;;4718960;30;20048;-80
2021/08/09 16:03:33;;;;;;;4.10;1.02;;;29.10;51.70;;;;;;4747040;30;19910;-80
2021/08/09 16:05:59;;;;;;;3.97;1.02;;;29.10;51.30;;;;;;4733354;30;20045;-80
2021/08/09 16:08:25;;;;;;;2.73;0.83;;;29.10;51.70;;;;;;4746899;30;20044;-80
2021/08/09 16:10:51;;;;;;;5.10;0.80;;;29.10;50.90;;;;;;4732851;30;20025;-80
2021/08/09 16:13:16;;;;;;;3.87;1.27;;;29.10;50.80;;;;;;4732559;30;20324;-80